Johan Ruud — LEDR — position and weather

sailwx.info

Track history (hours):
 
Tides and Currents Weather Stations Pressure Air Temp Water Temp Dewpoint Dewpoint Depression Visibility Wind Speed Wind Dir Waves Ship Positions

Oceanographic research ship Johan Ruud (Norway)

Detailed information on ship capabilities available from University of Delaware's Ocean Information Center.

Last reported at 2016-Feb-10 17:16 UTC. Time now 2016-Feb-10 17:50 UTC.
Position N 68°56' E 017°10'.

Length 30 m; draft 4.5 m.

Type: Fishing. MMSI: 257265000.

Date/timePositionNaut miles runAvg speedWind from/ knotsBaromVisibWave heightAir tempDewpointWater temp
2016-Feb-10 17:16N 68°56' E 017°10'1 1.3
2016-Feb-10 16:33N 68°56' E 017°12'1 1.4
2016-Feb-10 15:34N 68°56' E 017°16'3 2.1
2016-Feb-10 14:08N 68°56' E 017°07'3 5.2
2016-Feb-10 13:33N 68°56' E 017°16'0 0.2
2016-Feb-10 12:33N 68°56' E 017°16'1 0.7
2016-Feb-10 11:33N 68°56' E 017°14'0 0.1
2016-Feb-10 10:33N 68°56' E 017°14'0 0.1
2016-Feb-10 09:32N 68°56' E 017°15'1 1.0
2016-Feb-10 08:33N 68°56' E 017°12'0 0.1
2016-Feb-10 07:33N 68°56' E 017°12'0 0.2
2016-Feb-10 06:33N 68°56' E 017°12'1 1.0
2016-Feb-10 05:33N 68°56' E 017°15'0 0.1
2016-Feb-10 04:33N 68°57' E 017°15'0 0.3
2016-Feb-10 03:33N 68°56' E 017°16'1 1.3
2016-Feb-10 02:33N 68°57' E 017°12'0 0.4
2016-Feb-10 01:33N 68°57' E 017°13'0 0.2
2016-Feb-10 00:33N 68°57' E 017°14'1 1.5
2016-Feb-09 23:33N 68°57' E 017°10'1 0.7
2016-Feb-09 22:33N 68°57' E 017°11'1 0.7
2016-Feb-09 21:32N 68°57' E 017°13'1 1.2
2016-Feb-09 20:34N 68°56' E 017°11'1 0.8
2016-Feb-09 19:33N 68°57' E 017°12'0 0.3
2016-Feb-09 18:33N 68°57' E 017°13'0 0.5
2016-Feb-09 17:33N 68°57' E 017°14'1 1.4
2016-Feb-09 16:31N 68°56' E 017°11'0 0.4
2016-Feb-09 15:33N 68°56' E 017°10'1 0.1
2016-Feb-09 03:26N 68°56' E 017°08'0 0.5
2016-Feb-09 02:28N 68°57' E 017°09'0 0.3
2016-Feb-09 01:15N 68°57' E 017°10'0 0.2
2016-Feb-09 00:29N 68°56' E 017°10'0 0.2
2016-Feb-08 23:33N 68°56' E 017°11'0 0.1
2016-Feb-08 22:31N 68°57' E 017°11'1 0.8
2016-Feb-08 21:33N 68°57' E 017°13'0 0.4
2016-Feb-08 20:33N 68°56' E 017°14'0 0.4
2016-Feb-08 19:34N 68°57' E 017°14'1 0.8
2016-Feb-08 18:28N 68°56' E 017°11'0 0.4
2016-Feb-08 17:33N 68°56' E 017°11'1 1.0
2016-Feb-08 16:33N 68°56' E 017°13'3 2.8
2016-Feb-08 15:33N 68°58' E 017°18'9 9.0
2016-Feb-08 14:33N 69°06' E 017°30'10 9.8
2016-Feb-08 13:33N 69°10' E 017°55'9 8.4
2016-Feb-08 12:28N 69°19' E 017°59'  
Track history (hours):
 
Tides and Currents Weather Stations Pressure Air Temp Water Temp Dewpoint Dewpoint Depression Visibility Wind Speed Wind Dir Waves Ship Positions

Oceanographic research ship Johan Ruud (Norway)

Detailed information on ship capabilities available from University of Delaware's Ocean Information Center.

Last reported at 2016-Feb-10 17:16 UTC. Time now 2016-Feb-10 17:50 UTC.
Position N 68°56' E 017°10'.

Length 30 m; draft 4.5 m.

Type: Fishing. MMSI: 257265000.

Date/timePositionNaut miles runAvg speedWind from/ knotsBaromVisibWave heightAir tempDewpointWater temp
2016-Feb-10 17:16N 68°56' E 017°10'1 1.3
2016-Feb-10 16:33N 68°56' E 017°12'1 1.4
2016-Feb-10 15:34N 68°56' E 017°16'3 2.1
2016-Feb-10 14:08N 68°56' E 017°07'3 5.2
2016-Feb-10 13:33N 68°56' E 017°16'0 0.2
2016-Feb-10 12:33N 68°56' E 017°16'1 0.7
2016-Feb-10 11:33N 68°56' E 017°14'0 0.1
2016-Feb-10 10:33N 68°56' E 017°14'0 0.1
2016-Feb-10 09:32N 68°56' E 017°15'1 1.0
2016-Feb-10 08:33N 68°56' E 017°12'0 0.1
2016-Feb-10 07:33N 68°56' E 017°12'0 0.2
2016-Feb-10 06:33N 68°56' E 017°12'1 1.0
2016-Feb-10 05:33N 68°56' E 017°15'0 0.1
2016-Feb-10 04:33N 68°57' E 017°15'0 0.3
2016-Feb-10 03:33N 68°56' E 017°16'1 1.3
2016-Feb-10 02:33N 68°57' E 017°12'0 0.4
2016-Feb-10 01:33N 68°57' E 017°13'0 0.2
2016-Feb-10 00:33N 68°57' E 017°14'1 1.5
2016-Feb-09 23:33N 68°57' E 017°10'1 0.7
2016-Feb-09 22:33N 68°57' E 017°11'1 0.7
2016-Feb-09 21:32N 68°57' E 017°13'1 1.2
2016-Feb-09 20:34N 68°56' E 017°11'1 0.8
2016-Feb-09 19:33N 68°57' E 017°12'0 0.3
2016-Feb-09 18:33N 68°57' E 017°13'0 0.5
2016-Feb-09 17:33N 68°57' E 017°14'1 1.4
2016-Feb-09 16:31N 68°56' E 017°11'0 0.4
2016-Feb-09 15:33N 68°56' E 017°10'1 0.1
2016-Feb-09 03:26N 68°56' E 017°08'0 0.5
2016-Feb-09 02:28N 68°57' E 017°09'0 0.3
2016-Feb-09 01:15N 68°57' E 017°10'0 0.2
2016-Feb-09 00:29N 68°56' E 017°10'0 0.2
2016-Feb-08 23:33N 68°56' E 017°11'0 0.1
2016-Feb-08 22:31N 68°57' E 017°11'1 0.8
2016-Feb-08 21:33N 68°57' E 017°13'0 0.4
2016-Feb-08 20:33N 68°56' E 017°14'0 0.4
2016-Feb-08 19:34N 68°57' E 017°14'1 0.8
2016-Feb-08 18:28N 68°56' E 017°11'0 0.4
2016-Feb-08 17:33N 68°56' E 017°11'1 1.0
2016-Feb-08 16:33N 68°56' E 017°13'3 2.8
2016-Feb-08 15:33N 68°58' E 017°18'9 9.0
2016-Feb-08 14:33N 69°06' E 017°30'10 9.8
2016-Feb-08 13:33N 69°10' E 017°55'9 8.4
2016-Feb-08 12:28N 69°19' E 017°59'  

Dump ship's entire track history